createdAt,value
2022-08-05T00:02:22.032Z,31.15
2022-08-05T00:07:59.099Z,31.08
2022-08-05T00:12:56.695Z,31.00
2022-08-05T00:18:09.822Z,30.95
2022-08-05T00:23:44.722Z,30.85
2022-08-05T00:28:47.263Z,30.77
2022-08-05T00:34:55.794Z,30.70
2022-08-05T00:39:15.228Z,30.62
2022-08-05T00:44:17.417Z,30.56
2022-08-05T00:49:20.458Z,30.50
2022-08-05T00:54:22.654Z,30.43
2022-08-05T00:59:44.736Z,30.37
2022-08-05T01:04:50.344Z,30.31
2022-08-05T01:09:55.487Z,30.28
2022-08-05T01:15:05.805Z,30.23
2022-08-05T01:20:31.825Z,30.17
2022-08-05T01:26:19.901Z,30.11
2022-08-05T01:31:27.241Z,30.03
2022-08-05T01:36:34.329Z,29.97
2022-08-05T01:41:48.894Z,29.90
2022-08-05T01:46:53.208Z,29.85
2022-08-05T01:52:17.713Z,29.79
2022-08-05T01:58:29.428Z,29.72
2022-08-05T02:02:58.019Z,29.66
2022-08-05T02:08:03.138Z,29.62
2022-08-05T02:13:16.305Z,29.54
2022-08-05T02:18:35.021Z,29.50
2022-08-05T02:23:42.948Z,29.44
2022-08-05T02:28:50.232Z,29.38
2022-08-05T02:34:00.041Z,29.33
2022-08-05T02:39:08.795Z,29.31
2022-08-05T02:44:13.893Z,29.26
2022-08-05T02:49:16.677Z,29.21
2022-08-05T02:54:36.127Z,29.13
2022-08-05T02:59:50.302Z,29.07
2022-08-05T03:04:55.186Z,29.00
2022-08-05T03:09:58.318Z,28.96
2022-08-05T03:15:03.265Z,28.90
2022-08-05T03:20:10.226Z,28.83
2022-08-05T03:25:33.587Z,28.80
2022-08-05T03:30:38.250Z,28.75
2022-08-05T03:35:46.090Z,28.70
2022-08-05T03:40:49.955Z,28.66
2022-08-05T03:45:58.055Z,28.63
2022-08-05T03:52:39.201Z,28.59
2022-08-05T03:56:46.771Z,28.57
2022-08-05T04:01:58.993Z,28.53
2022-08-05T04:07:02.675Z,28.50
2022-08-05T04:12:24.475Z,28.47
2022-08-05T04:17:36.470Z,28.45
2022-08-05T04:23:00.260Z,28.42
2022-08-05T04:28:13.234Z,28.44
2022-08-05T04:33:54.978Z,28.44
2022-08-05T04:38:46.067Z,28.44
2022-08-05T04:43:54.411Z,28.45
2022-08-05T04:49:00.623Z,28.47
2022-08-05T04:54:04.312Z,28.49
2022-08-05T04:59:22.059Z,28.51
2022-08-05T05:04:30.086Z,28.53
2022-08-05T05:09:37.372Z,28.55
2022-08-05T05:14:49.345Z,28.57
2022-08-05T05:19:56.659Z,28.58
2022-08-05T05:25:16.717Z,28.58
2022-08-05T05:30:29.263Z,28.17
2022-08-05T05:35:39.559Z,27.94
2022-08-05T05:40:54.145Z,27.85
2022-08-05T05:45:57.051Z,27.85
2022-08-05T05:51:15.009Z,27.97
2022-08-05T05:56:26.226Z,28.10
2022-08-05T06:01:57.611Z,28.23
2022-08-05T06:07:13.208Z,28.33
2022-08-05T06:12:27.332Z,28.44
2022-08-05T06:17:31.014Z,28.60
2022-08-05T06:22:35.226Z,28.75
2022-08-05T06:28:12.092Z,28.89
2022-08-05T06:33:00.769Z,29.05
2022-08-05T06:38:11.112Z,29.20
2022-08-05T06:43:58.839Z,29.30
2022-08-05T06:48:56.339Z,29.41
2022-08-05T06:54:02.864Z,29.50
2022-08-05T06:59:08.343Z,29.48
2022-08-05T07:04:13.898Z,29.47
2022-08-05T07:09:16.625Z,29.47
2022-08-05T07:14:38.216Z,29.52
2022-08-05T07:20:31.582Z,29.57
2022-08-05T07:25:22.869Z,29.63
2022-08-05T07:30:38.140Z,29.65
2022-08-05T07:36:02.812Z,29.66
2022-08-05T07:42:07.743Z,29.69
2022-08-05T07:46:39.571Z,29.76
2022-08-05T07:51:53.064Z,29.69
2022-08-05T07:57:01.641Z,29.78
2022-08-05T08:02:18.017Z,29.76
2022-08-05T08:07:22.086Z,29.69
2022-08-05T08:12:35.158Z,29.68
2022-08-05T08:17:44.011Z,29.64
2022-08-05T08:23:03.116Z,29.58
2022-08-05T08:28:18.748Z,29.46
2022-08-05T08:33:38.091Z,29.75
2022-08-05T08:38:40.269Z,29.85
2022-08-05T08:45:18.433Z,30.01
2022-08-05T08:50:05.841Z,30.11
2022-08-05T08:54:43.758Z,30.07
2022-08-05T08:59:48.947Z,30.06
2022-08-05T09:05:16.172Z,30.11
2022-08-05T09:10:15.894Z,30.28
2022-08-05T09:15:21.088Z,30.37
2022-08-05T09:20:36.607Z,30.58
2022-08-05T09:26:03.234Z,30.70
2022-08-05T09:32:38.719Z,31.04
2022-08-05T09:36:59.692Z,31.15
2022-08-05T09:42:17.555Z,31.14
2022-08-05T09:47:49.073Z,31.16
2022-08-05T09:52:57.811Z,31.04
2022-08-05T09:58:16.748Z,30.99
2022-08-05T10:03:20.365Z,30.86
2022-08-05T10:08:37.456Z,31.07
2022-08-05T10:13:47.861Z,31.07
2022-08-05T10:18:58.133Z,31.10
2022-08-05T10:24:01.348Z,31.26
2022-08-05T10:29:05.519Z,31.49
2022-08-05T10:34:11.591Z,31.58
2022-08-05T10:39:59.260Z,31.70
2022-08-05T10:44:59.332Z,31.86
2022-08-05T10:50:33.151Z,31.98
2022-08-05T10:56:05.364Z,32.19
2022-08-05T11:01:28.052Z,32.04
2022-08-05T11:06:31.365Z,32.26
2022-08-05T11:11:44.533Z,32.50
2022-08-05T11:17:58.769Z,32.69
2022-08-05T11:22:53.925Z,32.94
2022-08-05T11:28:05.593Z,33.15
2022-08-05T11:33:43.953Z,33.23
2022-08-05T11:38:51.257Z,33.39
2022-08-05T11:44:07.117Z,33.54
2022-08-05T11:49:15.836Z,33.66
2022-08-05T11:54:33.431Z,33.85
2022-08-05T11:59:49.814Z,34.06
2022-08-05T12:04:59.038Z,34.06
2022-08-05T12:10:09.661Z,34.13
2022-08-05T12:15:33.271Z,34.34
2022-08-05T12:20:40.695Z,34.51
2022-08-05T12:25:56.735Z,34.61
2022-08-05T12:31:02.203Z,34.76
2022-08-05T12:36:08.010Z,34.95
2022-08-05T12:41:14.126Z,35.07
2022-08-05T12:46:29.281Z,35.12
2022-08-05T12:52:10.353Z,35.22
2022-08-05T12:57:10.205Z,35.21
2022-08-05T13:02:30.633Z,35.12
2022-08-05T13:13:08.962Z,35.21
2022-08-05T13:18:11.331Z,35.25
2022-08-05T13:23:22.424Z,35.31
2022-08-05T13:28:25.506Z,35.40
2022-08-05T13:34:23.189Z,35.45
2022-08-05T13:38:52.000Z,35.59
2022-08-05T13:43:55.551Z,35.57
2022-08-05T13:49:01.021Z,35.50
2022-08-05T13:54:11.881Z,35.48
2022-08-05T13:59:27.117Z,35.57
2022-08-05T14:05:01.925Z,35.72
2022-08-05T14:10:19.107Z,35.83
2022-08-05T14:16:08.908Z,35.78
2022-08-05T14:22:07.729Z,35.88
2022-08-05T14:26:35.705Z,35.98
2022-08-05T14:32:03.209Z,36.19
2022-08-05T14:37:06.038Z,36.40
2022-08-05T14:42:19.664Z,36.69
2022-08-05T14:48:03.726Z,36.92
2022-08-05T14:52:53.044Z,37.01
2022-08-05T14:57:58.497Z,37.11
2022-08-05T15:03:00.167Z,37.01
2022-08-05T15:08:10.744Z,36.88
2022-08-05T15:13:14.887Z,36.86
2022-08-05T15:18:17.308Z,36.93
2022-08-05T15:23:19.777Z,37.02
2022-08-05T15:28:27.370Z,37.06
2022-08-05T15:34:04.971Z,37.07
2022-08-05T15:41:03.739Z,37.01
2022-08-05T15:44:16.531Z,37.13
2022-08-05T15:49:27.467Z,37.26
2022-08-05T15:54:41.544Z,37.27
2022-08-05T15:59:44.965Z,37.37
2022-08-05T16:04:47.316Z,37.49
2022-08-05T16:09:49.148Z,37.62
2022-08-05T16:14:50.869Z,37.67
2022-08-05T16:20:04.168Z,37.65
2022-08-05T16:25:10.208Z,37.54
2022-08-05T16:30:23.378Z,37.36
2022-08-05T16:35:33.513Z,37.23
2022-08-05T16:40:36.489Z,37.09
2022-08-05T16:46:04.888Z,37.02
2022-08-05T16:51:00.566Z,36.91
2022-08-05T16:56:02.619Z,36.80
2022-08-05T17:01:06.690Z,36.74
2022-08-05T17:06:12.414Z,36.72
2022-08-05T17:11:17.007Z,36.74
2022-08-05T17:16:33.105Z,36.73
2022-08-05T17:21:36.757Z,36.67
2022-08-05T17:26:39.185Z,36.59
2022-08-05T17:31:59.073Z,36.41
2022-08-05T17:37:00.867Z,36.26
2022-08-05T17:42:18.316Z,36.10
2022-08-05T17:47:23.069Z,35.98
2022-08-05T17:52:26.176Z,35.85
2022-08-05T17:57:28.809Z,35.70
2022-08-05T18:02:30.443Z,35.58
2022-08-05T18:07:41.339Z,35.48
2022-08-05T18:12:43.693Z,35.39
2022-08-05T18:18:00.794Z,35.29
2022-08-05T18:23:09.204Z,35.21
2022-08-05T18:28:11.418Z,35.09
2022-08-05T18:33:14.023Z,34.90
2022-08-05T18:38:19.120Z,34.55
2022-08-05T18:43:27.536Z,34.21
2022-08-05T18:48:33.729Z,33.96
2022-08-05T18:53:45.696Z,33.69
2022-08-05T18:58:54.788Z,33.54
2022-08-05T19:04:05.333Z,33.33
2022-08-05T19:09:08.335Z,33.17
2022-08-05T19:14:44.705Z,33.07
2022-08-05T19:19:31.962Z,33.02
2022-08-05T19:24:34.429Z,32.90
2022-08-05T19:29:38.814Z,32.68
2022-08-05T19:34:54.369Z,32.52
2022-08-05T19:40:02.106Z,32.37
2022-08-05T19:45:14.664Z,32.21
2022-08-05T19:50:18.484Z,32.12
2022-08-05T19:56:15.599Z,31.78
2022-08-05T20:00:44.744Z,31.69
2022-08-05T20:05:53.094Z,31.59
2022-08-05T20:10:56.779Z,31.40
2022-08-05T20:16:04.174Z,31.37
2022-08-05T20:21:07.889Z,31.24
2022-08-05T20:26:16.524Z,31.19
2022-08-05T20:31:36.785Z,31.14
2022-08-05T20:36:45.504Z,30.98
2022-08-05T20:41:48.286Z,30.70
2022-08-05T20:46:50.085Z,30.58
2022-08-05T20:51:55.162Z,30.37
2022-08-05T20:56:58.302Z,30.28
2022-08-05T21:02:00.476Z,30.20
2022-08-05T21:07:02.843Z,30.05
2022-08-05T21:12:11.661Z,29.84
2022-08-05T21:17:15.450Z,29.69
2022-08-05T21:22:21.918Z,29.58
2022-08-05T21:27:27.255Z,29.48
2022-08-05T21:32:29.547Z,29.47
2022-08-05T21:37:31.565Z,29.47
2022-08-05T21:42:44.347Z,29.44
2022-08-05T21:47:57.258Z,29.49
2022-08-05T21:53:04.640Z,29.38
2022-08-05T21:58:20.274Z,29.43
2022-08-05T22:03:52.340Z,29.51
2022-08-05T22:08:51.871Z,29.60
2022-08-05T22:14:05.710Z,29.48
2022-08-05T22:19:57.230Z,29.47
2022-08-05T22:24:56.401Z,29.51
2022-08-05T22:29:59.224Z,29.33
2022-08-05T22:35:00.994Z,29.10
2022-08-05T22:40:07.325Z,28.94
2022-08-05T22:45:12.150Z,28.79
2022-08-05T22:50:19.056Z,28.69
2022-08-05T22:55:27.020Z,28.68
2022-08-05T23:00:42.372Z,28.63
2022-08-05T23:05:44.619Z,28.45
2022-08-05T23:10:46.752Z,28.20
2022-08-05T23:15:50.319Z,28.07
2022-08-05T23:20:52.603Z,28.02
2022-08-05T23:25:55.335Z,27.72
2022-08-05T23:31:15.678Z,27.44
2022-08-05T23:36:18.790Z,27.10
2022-08-05T23:41:20.876Z,26.88
2022-08-05T23:46:23.942Z,26.72
2022-08-05T23:51:25.864Z,26.62
2022-08-05T23:56:27.871Z,26.62
